Time;durP1;ratioP1;P1;durP2;ratioP2;P2;SDS_P1;SDS_P2;PMS_P1;PMS_P2;Temp;Humidity;BMP_temperature;BMP_pressure;BME280_temperature;BME280_humidity;BME280_pressure;Samples;Min_cycle;Max_cycle;Signal;HPM_P1;HPM_P2
2021/03/12 00:00:37;;;;;;;43.00;28.05;;;;;;;3.25;80.84;98811.16;99451;1171;66894;-62
2021/03/12 00:02:46;;;;;;;47.20;30.80;;;;;;;3.22;80.88;98820.36;99438;1174;87439;-63
2021/03/12 00:04:51;;;;;;;44.10;30.40;;;;;;;3.21;80.56;98817.89;99456;1174;75460;-65
2021/03/12 00:07:02;;;;;;;44.20;30.95;;;;;;;3.14;80.71;98819.60;99437;1173;89120;-65
2021/03/12 00:09:08;;;;;;;45.75;31.50;;;;;;;3.10;81.09;98821.83;99422;1167;82145;-64
2021/03/12 00:11:17;;;;;;;49.60;31.50;;;;;;;3.12;80.64;98813.63;99452;1171;67098;-65
2021/03/12 00:13:24;;;;;;;47.70;32.50;;;;;;;3.12;80.84;98802.95;99430;1174;87898;-65
2021/03/12 00:15:30;;;;;;;47.70;32.27;;;;;;;3.11;80.96;98801.28;99455;1171;74593;-64
2021/03/12 00:17:35;;;;;;;45.25;31.15;;;;;;;3.12;80.67;98805.63;99441;1175;89749;-64
2021/03/12 00:19:40;;;;;;;50.20;33.20;;;;;;;3.20;81.04;98800.20;99415;1174;83982;-64
2021/03/12 00:21:46;;;;;;;47.70;31.60;;;;;;;3.22;80.42;98796.34;99451;1170;66941;-64
2021/03/12 00:23:51;;;;;;;49.17;30.97;;;;;;;3.21;80.92;98799.20;99439;1175;86827;-65
2021/03/12 00:25:57;;;;;;;48.30;31.70;;;;;;;3.24;80.66;98793.52;99448;1174;75923;-65
2021/03/12 00:28:03;;;;;;;49.20;30.65;;;;;;;3.26;80.85;98788.81;99442;1175;90063;-65
2021/03/12 00:30:12;;;;;;;45.80;31.45;;;;;;;3.24;80.64;98785.51;99432;1168;82031;-64
2021/03/12 00:32:17;;;;;;;43.55;29.45;;;;;;;3.27;80.68;98795.82;99441;1170;67071;-63
2021/03/12 00:34:25;;;;;;;40.60;26.80;;;;;;;3.20;81.02;98794.88;99442;1174;87308;-64
2021/03/12 00:36:33;;;;;;;42.40;27.20;;;;;;;3.09;81.15;98789.98;99442;1167;75443;-66
2021/03/12 00:38:39;;;;;;;44.20;29.55;;;;;;;3.08;81.52;98783.00;99443;1174;88333;-66
2021/03/12 00:40:51;;;;;;;46.90;30.90;;;;;;;3.12;80.99;98786.95;99419;1174;82310;-66
2021/03/12 00:42:57;;;;;;;44.10;28.70;;;;;;;3.16;80.97;98785.59;99448;1174;67025;-66
2021/03/12 00:45:02;;;;;;;44.87;30.47;;;;;;;3.17;81.28;98784.56;99439;1168;88223;-64
2021/03/12 00:47:08;;;;;;;45.05;29.55;;;;;;;3.18;80.78;98795.06;99446;1174;75680;-64
2021/03/12 00:49:13;;;;;;;43.20;29.80;;;;;;;3.20;80.72;98786.87;99439;1174;89354;-63
2021/03/12 00:51:22;;;;;;;45.15;29.25;;;;;;;3.19;80.59;98786.03;99425;1173;81717;-64
2021/03/12 00:53:30;;;;;;;47.00;30.30;;;;;;;3.20;81.16;98789.53;99437;1174;66973;-64
2021/03/12 00:55:36;;;;;;;49.60;32.70;;;;;;;3.26;80.86;98794.98;99447;1174;88166;-64
2021/03/12 00:57:42;;;;;;;48.20;31.85;;;;;;;3.26;81.33;98808.33;99435;1171;75490;-64
2021/03/12 00:59:47;;;;;;;46.15;30.10;;;;;;;3.24;80.96;98810.33;99438;1174;89740;-64
2021/03/12 01:01:55;;;;;;;44.57;29.87;;;;;;;3.22;80.78;98801.69;99424;1174;82781;-65
2021/03/12 01:04:00;;;;;;;48.13;30.80;;;;;;;3.21;80.75;98796.55;99452;1174;66840;-65
2021/03/12 01:06:07;;;;;;;43.50;29.80;;;;;;;3.21;80.73;98797.38;99440;1172;87099;-65
2021/03/12 01:08:12;;;;;;;43.55;29.75;;;;;;;3.27;80.65;98795.82;99455;1174;75220;-64
2021/03/12 01:10:25;;;;;;;42.80;29.55;;;;;;;3.25;81.17;98797.81;99437;1167;89033;-63
2021/03/12 01:12:34;;;;;;;40.75;28.30;;;;;;;3.31;80.97;98797.09;99417;1168;82373;-64
2021/03/12 01:14:39;;;;;;;46.30;30.80;;;;;;;3.30;81.17;98787.42;99445;1171;67142;-64
2021/03/12 01:16:44;;;;;;;45.80;30.50;;;;;;;3.30;80.90;98774.08;99424;1172;87067;-65
2021/03/12 01:18:52;;;;;;;41.93;29.17;;;;;;;3.35;80.85;98777.05;99442;1174;76097;-65
2021/03/12 01:20:58;;;;;;;40.87;29.17;;;;;;;3.39;80.90;98772.98;99447;1174;90106;-65
2021/03/12 01:23:04;;;;;;;43.10;29.55;;;;;;;3.34;80.77;98765.55;99427;1168;82777;-66
2021/03/12 01:25:14;;;;;;;39.60;27.70;;;;;;;3.33;80.64;98769.21;99444;1168;67054;-65
2021/03/12 01:27:19;;;;;;;45.40;29.20;;;;;;;3.30;80.76;98764.23;99434;1167;86825;-63
2021/03/12 01:29:28;;;;;;;45.65;29.65;;;;;;;3.33;80.64;98761.20;99449;1171;74508;-63
2021/03/12 01:31:36;;;;;;;39.10;27.20;;;;;;;3.35;80.77;98769.05;99438;1171;88763;-62
2021/03/12 01:33:45;;;;;;;38.50;26.75;;;;;;;3.36;80.85;98768.84;99419;1167;83384;-62
2021/03/12 01:35:50;;;;;;;40.60;27.90;;;;;;;3.35;80.72;98777.05;99458;1174;66959;-62
2021/03/12 01:37:56;;;;;;;43.00;27.75;;;;;;;3.38;80.72;98769.48;99435;1174;88579;-62
2021/03/12 01:40:02;;;;;;;42.55;28.00;;;;;;;3.35;81.06;98777.86;99445;1174;75824;-63
2021/03/12 01:42:08;;;;;;;38.90;25.80;;;;;;;3.41;81.07;98776.30;99440;1175;89954;-62
2021/03/12 01:44:17;;;;;;;38.70;26.10;;;;;;;3.45;81.24;98772.27;99420;1167;83226;-67
2021/03/12 01:46:21;;;;;;;;;;;;;;;3.48;80.82;98775.41;99450;1174;66908;-66
2021/03/12 01:48:30;;;;;;;35.10;23.60;;;;;;;3.40;81.35;98771.98;99428;1171;87659;-67
2021/03/12 01:50:36;;;;;;;35.30;25.65;;;;;;;3.41;81.26;98771.80;99444;1171;74654;-65
2021/03/12 01:52:41;;;;;;;37.75;25.05;;;;;;;3.39;81.18;98763.15;99437;1174;89390;-65
2021/03/12 01:54:47;;;;;;;39.67;26.03;;;;;;;3.36;81.05;98770.69;99438;1174;82716;-66
2021/03/12 01:56:55;;;;;;;37.10;24.07;;;;;;;3.36;80.81;98779.52;99433;1168;67094;-66
2021/03/12 01:59:01;;;;;;;33.50;23.40;;;;;;;3.35;81.21;98779.72;99446;1172;87229;-66
2021/03/12 02:01:06;;;;;;;32.80;23.15;;;;;;;3.32;80.95;98774.75;99442;1174;75376;-66
2021/03/12 02:03:17;;;;;;;34.10;23.90;;;;;;;3.27;81.66;98771.80;99455;1171;89336;-65
2021/03/12 02:05:23;;;;;;;35.00;23.50;;;;;;;3.25;81.24;98777.31;99429;1173;82219;-65
2021/03/12 02:07:28;;;;;;;33.10;23.40;;;;;;;3.24;81.22;98788.17;99441;1174;66935;-65
2021/03/12 02:09:36;;;;;;;33.40;21.40;;;;;;;3.25;81.43;98781.81;99433;1174;87871;-65
2021/03/12 02:11:53;;;;;;;33.17;21.97;;;;;;;3.26;81.44;98775.47;99445;1174;76106;-65
2021/03/12 02:14:14;;;;;;;31.90;23.10;;;;;;;3.27;81.78;98763.80;99444;1174;89594;-65
2021/03/12 02:16:27;;;;;;;33.45;21.25;;;;;;;3.26;81.34;98757.63;99418;1171;81560;-66
2021/03/12 02:18:40;;;;;;;30.85;21.75;;;;;;;3.25;81.33;98755.13;99439;1175;67222;-67
2021/03/12 02:20:54;;;;;;;30.20;22.25;;;;;;;3.24;81.83;98764.16;99433;1173;87309;-66
2021/03/12 02:23:23;;;;;;;28.75;19.90;;;;;;;3.27;81.67;98774.47;99433;1167;74810;-66
2021/03/12 02:25:31;;;;;;;31.90;21.80;;;;;;;3.30;81.47;98772.25;99444;1175;90146;-64
2021/03/12 02:27:36;;;;;;;30.80;21.00;;;;;;;3.33;81.70;98768.38;99418;1174;82238;-64
2021/03/12 02:29:46;;;;;;;31.20;21.60;;;;;;;3.39;81.69;98764.98;99442;1171;66977;-65
2021/03/12 02:31:55;;;;;;;30.00;21.00;;;;;;;3.45;81.57;98765.09;99428;1168;87332;-65
2021/03/12 02:34:03;;;;;;;31.50;21.95;;;;;;;3.51;81.66;98775.04;99454;1173;74525;-66
2021/03/12 02:36:10;;;;;;;26.95;18.85;;;;;;;3.58;81.72;98783.12;99446;1175;89881;-66
2021/03/12 02:38:20;;;;;;;29.30;20.35;;;;;;;3.60;81.83;98773.08;99419;1175;82539;-65
2021/03/12 02:40:26;;;;;;;27.80;19.50;;;;;;;3.63;81.98;98785.22;99441;1171;67137;-65
2021/03/12 02:42:32;;;;;;;33.80;22.40;;;;;;;3.70;81.91;98773.64;99435;1175;87917;-64
2021/03/12 02:44:40;;;;;;;28.55;20.40;;;;;;;3.77;81.76;98773.71;99451;1171;74997;-64
2021/03/12 02:46:46;;;;;;;29.00;20.40;;;;;;;3.84;81.60;98779.98;99445;1174;88530;-64
2021/03/12 02:48:53;;;;;;;30.05;20.35;;;;;;;3.90;81.93;98776.58;99429;1172;82469;-64
2021/03/12 02:51:00;;;;;;;28.60;19.60;;;;;;;3.94;81.74;98769.83;99438;1168;67111;-64
2021/03/12 02:53:10;;;;;;;27.33;19.13;;;;;;;3.92;81.51;98770.03;99431;1172;86485;-65
2021/03/12 02:55:20;;;;;;;31.50;20.80;;;;;;;3.88;81.34;98774.07;99448;1175;74419;-64
2021/03/12 02:57:29;;;;;;;26.95;19.15;;;;;;;3.88;81.63;98773.23;99446;1175;89778;-64
2021/03/12 02:59:38;;;;;;;28.15;19.20;;;;;;;3.85;81.50;98779.78;99426;1173;81629;-64
2021/03/12 03:01:43;;;;;;;28.15;19.60;;;;;;;3.77;81.22;98763.86;99462;1175;67067;-64
2021/03/12 03:03:49;;;;;;;30.75;21.10;;;;;;;3.68;81.52;98764.97;99434;1175;88137;-64
2021/03/12 03:05:55;;;;;;;29.40;20.00;;;;;;;3.62;81.03;98765.73;99440;1175;75914;-65
2021/03/12 03:08:05;;;;;;;29.50;20.25;;;;;;;3.57;81.44;98776.14;99442;1167;89862;-64
2021/03/12 03:10:14;;;;;;;29.73;19.57;;;;;;;3.54;81.24;98771.97;99417;1175;82548;-64
2021/03/12 03:12:22;;;;;;;28.35;19.35;;;;;;;3.51;81.36;98785.72;99451;1165;66818;-64
2021/03/12 03:14:32;;;;;;;30.75;19.70;;;;;;;3.50;81.07;98788.55;99446;1175;87715;-64
2021/03/12 03:16:39;;;;;;;28.90;19.80;;;;;;;3.48;80.95;98788.75;99447;1164;74950;-64
2021/03/12 03:18:46;;;;;;;28.75;18.50;;;;;;;3.45;81.19;98798.95;99449;1171;88687;-64
2021/03/12 03:20:51;;;;;;;26.95;19.25;;;;;;;3.39;81.01;98803.19;99428;1168;82531;-64
2021/03/12 03:22:57;;;;;;;27.10;19.10;;;;;;;3.32;80.64;98801.44;99435;1168;67036;-64
2021/03/12 03:25:04;;;;;;;30.40;20.40;;;;;;;3.29;80.90;98810.64;99426;1175;87659;-64
2021/03/12 03:27:11;;;;;;;28.13;19.95;;;;;;;3.25;80.94;98813.83;96918;1175;3010247;-66
2021/03/12 03:29:17;;;;;;;28.00;19.50;;;;;;;3.19;80.72;98815.38;99441;1175;89585;-64
2021/03/12 03:31:23;;;;;;;29.50;19.60;;;;;;;3.12;81.13;98805.63;99430;1175;82281;-65
2021/03/12 03:33:33;;;;;;;28.10;19.40;;;;;;;3.11;80.93;98803.95;99456;1168;66981;-66
2021/03/12 03:35:39;;;;;;;27.37;19.60;;;;;;;3.09;80.88;98806.81;99428;1171;86315;-64
2021/03/12 03:37:45;;;;;;;28.25;19.65;;;;;;;3.07;80.90;98800.84;99445;1174;75455;-66
2021/03/12 03:39:50;;;;;;;27.90;19.70;;;;;;;3.02;80.69;98808.56;99437;1171;89445;-65
2021/03/12 03:42:01;;;;;;;27.55;19.20;;;;;;;2.94;80.93;98812.11;99429;1171;82206;-65
2021/03/12 03:44:08;;;;;;;26.73;18.60;;;;;;;2.86;80.80;98809.50;99438;1175;66938;-64
2021/03/12 03:46:18;;;;;;;29.40;19.50;;;;;;;2.80;80.89;98812.88;99437;1171;86758;-66
2021/03/12 03:48:24;;;;;;;27.55;19.75;;;;;;;2.77;80.74;98812.43;99443;1175;75888;-64
2021/03/12 03:50:31;;;;;;;28.60;19.50;;;;;;;2.70;80.61;98814.14;99437;1168;89297;-63
2021/03/12 03:52:38;;;;;;;27.90;19.50;;;;;;;2.63;80.93;98803.38;99427;1171;81739;-64
2021/03/12 03:54:44;;;;;;;28.05;19.45;;;;;;;2.59;80.75;98806.55;99445;1175;67270;-64
2021/03/12 03:56:52;;;;;;;28.50;18.85;;;;;;;2.54;81.08;98801.77;99429;1175;88713;-64
2021/03/12 03:58:58;;;;;;;25.50;18.10;;;;;;;2.48;80.86;98805.13;99453;1174;75464;-64
2021/03/12 04:01:04;;;;;;;24.25;18.20;;;;;;;2.48;80.35;98790.97;99439;1175;89047;-64
2021/03/12 04:03:10;;;;;;;28.20;19.10;;;;;;;2.46;80.81;98804.48;99421;1174;81895;-63
2021/03/12 04:05:18;;;;;;;27.80;19.30;;;;;;;2.44;80.90;98797.68;99456;1174;67115;-64
2021/03/12 04:07:26;;;;;;;30.40;19.50;;;;;;;2.42;81.08;98803.17;99427;1175;88029;-64
2021/03/12 04:09:32;;;;;;;27.70;19.15;;;;;;;2.44;80.87;98809.17;99453;1175;75439;-63
2021/03/12 04:11:41;;;;;;;27.30;19.10;;;;;;;2.39;80.83;98819.50;99434;1175;88617;-63
2021/03/12 04:13:47;;;;;;;27.63;18.10;;;;;;;2.39;81.09;98816.84;99426;1173;81902;-63
2021/03/12 04:15:53;;;;;;;29.60;18.20;;;;;;;2.38;81.41;98826.70;99456;1175;66890;-64
2021/03/12 04:17:59;;;;;;;26.60;18.70;;;;;;;2.38;81.19;98823.20;99434;1175;87008;-64
2021/03/12 04:20:08;;;;;;;29.55;20.35;;;;;;;2.39;81.52;98832.83;99443;1175;75140;-66
2021/03/12 04:22:14;;;;;;;28.57;19.00;;;;;;;2.37;81.44;98830.35;99447;1171;88690;-63
2021/03/12 04:24:23;;;;;;;27.90;19.10;;;;;;;2.34;81.27;98844.02;99440;1175;82696;-64
2021/03/12 04:26:28;;;;;;;27.40;18.90;;;;;;;2.32;81.48;98843.38;99441;1171;66964;-64
2021/03/12 04:28:34;;;;;;;30.40;20.50;;;;;;;2.33;81.10;98841.55;99427;1175;87336;-64
2021/03/12 04:30:43;;;;;;;28.40;19.70;;;;;;;2.35;81.38;98843.03;99447;1171;75845;-64
2021/03/12 04:32:53;;;;;;;28.10;18.90;;;;;;;2.45;81.50;98844.63;99439;1173;88653;-64
2021/03/12 04:34:58;;;;;;;29.40;19.40;;;;;;;2.59;81.70;98843.88;99428;1175;82624;-64
2021/03/12 04:37:05;;;;;;;28.00;19.20;;;;;;;2.65;81.81;98841.34;99436;1172;67163;-65
2021/03/12 04:39:10;;;;;;;26.85;18.50;;;;;;;2.71;81.47;98850.47;99435;1168;87244;-63
2021/03/12 04:41:17;;;;;;;24.93;18.93;;;;;;;2.78;81.63;98852.23;99440;1175;76049;-62
2021/03/12 04:43:23;;;;;;;27.60;19.50;;;;;;;2.85;81.90;98847.87;99433;1171;88357;-64
2021/03/12 04:45:29;;;;;;;27.20;18.40;;;;;;;2.95;81.80;98851.11;99428;1173;82285;-63
2021/03/12 04:47:38;;;;;;;28.20;19.25;;;;;;;2.98;81.77;98844.59;99442;1175;67003;-64
2021/03/12 04:49:47;;;;;;;26.35;18.40;;;;;;;3.03;81.90;98842.20;99439;1175;87207;-64
2021/03/12 04:51:52;;;;;;;25.80;18.45;;;;;;;3.07;81.70;98846.19;99458;1175;74980;-63
2021/03/12 04:53:59;;;;;;;24.90;17.55;;;;;;;3.11;81.57;98852.81;99446;1173;89332;-63
2021/03/12 04:56:07;;;;;;;26.15;18.85;;;;;;;3.13;81.27;98852.64;99425;1171;81775;-63
2021/03/12 04:58:12;;;;;;;25.50;18.30;;;;;;;3.17;81.51;98848.59;99453;1168;66928;-63
2021/03/12 05:00:21;;;;;;;28.63;19.50;;;;;;;3.16;81.48;98849.63;99438;1169;86748;-63
2021/03/12 05:02:27;;;;;;;25.80;18.15;;;;;;;3.17;81.74;98854.77;99441;1175;75345;-63
2021/03/12 05:04:33;;;;;;;28.70;18.20;;;;;;;3.20;81.87;98859.74;99444;1175;89317;-63
2021/03/12 05:06:43;;;;;;;29.00;19.20;;;;;;;3.21;81.49;98850.73;99433;1175;82113;-64
2021/03/12 05:08:49;;;;;;;26.10;18.45;;;;;;;3.23;81.22;98847.88;99447;1171;67045;-64
2021/03/12 05:11:05;;;;;;;26.85;19.35;;;;;;;3.31;81.62;98850.47;99429;1175;87463;-63
2021/03/12 05:13:10;;;;;;;25.70;17.90;;;;;;;3.40;81.54;98855.56;99451;1175;75595;-64
2021/03/12 05:15:18;;;;;;;27.90;19.30;;;;;;;3.51;81.37;98862.30;99454;1167;88827;-64
2021/03/12 05:17:24;;;;;;;27.70;18.80;;;;;;;3.58;81.50;98866.72;99425;1175;82716;-63
2021/03/12 05:19:32;;;;;;;27.97;19.93;;;;;;;3.67;81.44;98869.30;99439;1168;67059;-63
2021/03/12 05:21:39;;;;;;;25.35;17.60;;;;;;;3.71;81.70;98868.74;99431;1174;87447;-63
2021/03/12 05:23:45;;;;;;;26.90;18.95;;;;;;;3.75;81.40;98875.39;99438;1175;75636;-63
2021/03/12 05:25:53;;;;;;;26.07;18.40;;;;;;;3.75;81.28;98872.72;99445;1175;88840;-63
2021/03/12 05:27:58;;;;;;;25.20;17.45;;;;;;;3.79;81.31;98870.52;99423;1175;82610;-63
2021/03/12 05:30:10;;;;;;;24.90;17.60;;;;;;;3.79;81.24;98870.52;99450;1168;66865;-63
2021/03/12 05:32:15;;;;;;;25.75;18.35;;;;;;;3.84;81.30;98876.97;99431;1171;86957;-63
2021/03/12 05:34:24;;;;;;;27.20;18.00;;;;;;;3.85;81.40;98878.61;99457;1174;75712;-63
2021/03/12 05:36:29;;;;;;;29.10;19.60;;;;;;;3.87;81.25;98883.78;99448;1175;89436;-63
2021/03/12 05:38:34;;;;;;;27.40;18.67;;;;;;;3.93;81.16;98880.35;99429;1168;81508;-63
2021/03/12 05:40:42;;;;;;;27.15;17.65;;;;;;;3.95;81.38;98883.69;99440;1175;66891;-64
2021/03/12 05:42:50;;;;;;;24.60;18.13;;;;;;;3.99;81.62;98885.80;99435;1171;87402;-63
2021/03/12 05:44:58;;;;;;;25.67;18.27;;;;;;;4.07;81.51;98872.34;99452;1174;75951;-64
2021/03/12 05:47:05;;;;;;;27.40;18.20;;;;;;;4.14;81.49;98867.94;99439;1171;88781;-64
2021/03/12 05:49:12;;;;;;;27.25;18.20;;;;;;;4.20;81.33;98881.56;99412;1175;82779;-64
2021/03/12 05:51:18;;;;;;;25.70;17.45;;;;;;;4.23;81.22;98882.00;99439;1168;67135;-64
2021/03/12 05:53:23;;;;;;;24.00;16.30;;;;;;;4.30;81.30;98887.44;99437;1175;87710;-64
2021/03/12 05:55:31;;;;;;;24.60;16.15;;;;;;;4.33;81.22;98884.39;99447;1173;74599;-64
2021/03/12 05:57:37;;;;;;;27.80;17.40;;;;;;;4.33;81.54;98905.78;99453;1175;89490;-64
2021/03/12 05:59:42;;;;;;;26.00;16.30;;;;;;;4.34;81.21;98902.91;99415;1175;82555;-64
2021/03/12 06:01:48;;;;;;;23.90;16.75;;;;;;;4.33;81.24;98906.62;99440;1175;67318;-63
2021/03/12 06:03:53;;;;;;;25.10;16.00;;;;;;;4.36;81.13;98900.06;99440;1168;86976;-63
2021/03/12 06:05:59;;;;;;;23.30;16.30;;;;;;;4.39;81.28;98908.55;99453;1174;75942;-64
2021/03/12 06:08:05;;;;;;;25.40;16.60;;;;;;;4.42;81.19;98902.80;99436;1171;88575;-64
2021/03/12 06:10:12;;;;;;;23.10;15.70;;;;;;;4.45;81.39;98912.33;99438;1174;82950;-65
2021/03/12 06:12:17;;;;;;;22.90;15.80;;;;;;;4.41;81.11;98908.35;99446;1175;67001;-65
2021/03/12 06:14:54;;;;;;;23.85;16.30;;;;;;;4.40;81.26;98910.19;99440;1175;87798;-65
2021/03/12 06:16:59;;;;;;;23.70;15.50;;;;;;;4.43;81.06;98911.66;99459;1168;75349;-65
2021/03/12 06:19:16;;;;;;;23.30;15.10;;;;;;;4.47;80.89;98920.98;99446;1175;89705;-65
2021/03/12 06:21:31;;;;;;;22.70;15.90;;;;;;;4.53;81.04;98922.91;99431;1175;82334;-63
2021/03/12 06:23:39;;;;;;;22.67;14.53;;;;;;;4.56;80.91;98933.23;99455;1171;66896;-64
2021/03/12 06:25:55;;;;;;;21.65;14.65;;;;;;;4.59;80.63;98928.33;99440;1175;87863;-64
2021/03/12 06:28:16;;;;;;;24.00;14.50;;;;;;;4.60;80.97;98937.18;99454;1175;74843;-64
2021/03/12 06:30:24;;;;;;;24.07;15.23;;;;;;;4.62;80.84;98948.51;99444;1174;89689;-63
2021/03/12 06:32:44;;;;;;;23.50;14.50;;;;;;;4.60;80.67;98953.23;99433;1175;82892;-63
2021/03/12 06:35:01;;;;;;;21.25;14.15;;;;;;;4.62;80.86;98948.51;99453;1171;67243;-64
2021/03/12 06:37:28;;;;;;;22.80;13.65;;;;;;;4.66;80.79;98949.81;99439;1171;86783;-65
2021/03/12 06:39:34;;;;;;;22.10;13.50;;;;;;;4.67;81.12;98952.28;99444;1167;75337;-65
2021/03/12 06:41:42;;;;;;;19.90;13.60;;;;;;;4.66;80.80;98956.00;99445;1168;89129;-65
2021/03/12 06:43:47;;;;;;;18.45;12.35;;;;;;;4.71;80.83;98960.77;99432;1171;82204;-66
2021/03/12 06:46:13;;;;;;;17.00;12.15;;;;;;;4.76;81.10;98950.34;99440;1168;67062;-66
2021/03/12 06:48:20;;;;;;;15.45;11.80;;;;;;;4.81;81.18;98955.14;99427;1174;87063;-65
2021/03/12 06:50:25;;;;;;;16.90;11.25;;;;;;;4.82;81.38;98957.62;99438;1175;75580;-64
2021/03/12 06:52:35;;;;;;;19.43;12.20;;;;;;;4.80;81.11;98956.98;99441;1175;89322;-64
2021/03/12 06:54:54;;;;;;;16.45;11.55;;;;;;;4.84;81.37;98955.58;99425;1171;82987;-64
2021/03/12 06:56:59;;;;;;;17.15;11.40;;;;;;;4.90;81.13;98952.15;99444;1175;67052;-66
2021/03/12 06:59:07;;;;;;;16.75;12.05;;;;;;;4.92;81.50;98955.46;99436;1173;87263;-66
2021/03/12 07:01:22;;;;;;;19.40;11.70;;;;;;;4.98;81.33;98965.41;99450;1168;75415;-64
2021/03/12 07:03:31;;;;;;;16.10;10.90;;;;;;;5.03;81.55;98962.16;99456;1175;89758;-64
2021/03/12 07:06:03;;;;;;;19.40;11.55;;;;;;;5.14;81.55;98970.53;99425;1175;82602;-64
2021/03/12 07:08:33;;;;;;;15.30;11.20;;;;;;;5.26;81.26;98968.19;99431;1175;66926;-64
2021/03/12 07:10:42;;;;;;;17.35;11.15;;;;;;;5.36;81.35;98974.05;99432;1175;87879;-65
2021/03/12 07:12:50;;;;;;;17.50;10.80;;;;;;;5.46;81.21;98976.42;99452;1174;75664;-66
2021/03/12 07:14:56;;;;;;;15.00;10.80;;;;;;;5.45;80.97;98978.27;99432;1175;89804;-65
2021/03/12 07:17:05;;;;;;;17.35;11.25;;;;;;;5.48;81.28;98985.09;99425;1167;82731;-61
2021/03/12 07:19:10;;;;;;;17.50;11.95;;;;;;;5.47;81.17;98983.42;99455;1175;67095;-61
2021/03/12 07:21:21;;;;;;;20.30;11.70;;;;;;;5.48;80.81;98977.89;99433;1175;87973;-61
2021/03/12 07:23:28;;;;;;;18.45;12.00;;;;;;;5.53;81.02;98979.98;99436;1171;75021;-61
2021/03/12 07:25:37;;;;;;;17.10;11.95;;;;;;;5.60;81.14;98979.05;99446;1175;89550;-66
2021/03/12 07:27:52;;;;;;;16.60;11.50;;;;;;;5.64;81.37;98987.50;99426;1168;82085;-66
2021/03/12 07:30:00;;;;;;;18.55;11.60;;;;;;;5.60;81.42;98986.25;99449;1175;68546;-63
2021/03/12 07:32:09;;;;;;;15.70;11.27;;;;;;;5.63;81.27;98996.58;99432;1171;87117;-64
2021/03/12 07:34:18;;;;;;;17.00;11.40;;;;;;;5.70;81.17;98998.30;99446;1174;75876;-64
2021/03/12 07:36:26;;;;;;;18.75;12.95;;;;;;;5.77;81.14;98992.97;99436;1175;88860;-65
2021/03/12 07:38:35;;;;;;;16.57;12.20;;;;;;;5.88;81.40;99006.72;99431;1173;82577;-63
2021/03/12 07:40:41;;;;;;;18.30;12.80;;;;;;;5.94;81.48;99005.11;99445;1168;67261;-66
2021/03/12 07:42:48;;;;;;;20.97;13.73;;;;;;;6.03;81.14;99009.32;99433;1174;88142;-65
2021/03/12 07:44:55;;;;;;;20.35;13.20;;;;;;;6.10;81.16;99012.87;99448;1175;75907;-62
2021/03/12 07:47:04;;;;;;;16.30;12.10;;;;;;;6.21;81.28;99014.18;99447;1175;89523;-64
2021/03/12 07:49:39;;;;;;;17.35;11.95;;;;;;;6.28;80.93;99013.23;99426;1175;83221;-62
2021/03/12 07:51:50;;;;;;;17.20;11.95;;;;;;;6.28;81.11;99013.23;99448;1175;66924;-64
2021/03/12 07:53:57;;;;;;;18.73;11.00;;;;;;;6.27;81.24;99018.77;99437;1171;88058;-62
2021/03/12 07:56:02;;;;;;;19.90;11.60;;;;;;;6.30;80.92;99016.53;99440;1175;76115;-63
2021/03/12 07:58:12;;;;;;;16.50;10.60;;;;;;;6.33;80.57;99021.51;99441;1175;90164;-62
2021/03/12 08:00:22;;;;;;;18.10;11.80;;;;;;;6.37;80.53;99020.08;99430;1168;82502;-62
2021/03/12 08:02:59;;;;;;;16.45;11.20;;;;;;;6.47;80.76;99027.78;99452;1168;67255;-62
2021/03/12 08:05:40;;;;;;;16.10;10.70;;;;;;;6.52;80.48;99020.81;99442;1174;87037;-64
2021/03/12 08:07:46;;;;;;;13.77;11.03;;;;;;;6.58;80.63;99031.77;99442;1168;75387;-62
2021/03/12 08:09:53;;;;;;;15.15;10.50;;;;;;;6.59;80.48;99034.27;99436;1171;89054;-61
2021/03/12 08:11:59;;;;;;;14.65;10.15;;;;;;;6.62;80.58;99043.78;99430;1175;83261;-60
2021/03/12 08:14:17;;;;;;;14.00;10.10;;;;;;;6.64;80.21;99039.88;99444;1168;67080;-62
2021/03/12 08:16:23;;;;;;;15.15;10.15;;;;;;;6.69;80.41;99044.64;99440;1174;87397;-62
2021/03/12 08:18:28;;;;;;;15.60;10.40;;;;;;;6.74;80.54;99051.07;99459;1175;75838;-62
2021/03/12 08:20:40;;;;;;;13.50;10.20;;;;;;;6.81;80.45;99049.23;99450;1175;89178;-63
2021/03/12 08:22:47;;;;;;;13.50;9.90;;;;;;;6.83;80.88;99049.89;99434;1168;82143;-63
2021/03/12 08:24:53;;;;;;;15.90;9.60;;;;;;;6.84;80.20;99053.41;99450;1175;67142;-63
2021/03/12 08:27:02;;;;;;;11.80;9.13;;;;;;;6.85;80.16;99049.68;99434;1175;88011;-61
2021/03/12 08:29:36;;;;;;;13.55;8.70;;;;;;;6.86;79.90;99051.34;99446;1175;75337;-61
2021/03/12 08:31:42;;;;;;;;;;;;;;;6.87;79.96;99055.67;99462;1175;89679;-62
2021/03/12 08:33:47;;;;;;;12.80;8.45;;;;;;;6.88;79.86;99060.86;99423;1171;82492;-63
2021/03/12 08:35:53;;;;;;;15.75;9.30;;;;;;;6.91;79.74;99062.31;99444;1174;67004;-62
2021/03/12 08:38:04;;;;;;;15.40;8.63;;;;;;;7.00;80.14;99066.50;99441;1167;87678;-63
2021/03/12 08:40:25;;;;;;;14.80;9.20;;;;;;;7.18;79.90;99060.58;99452;1175;75471;-62
2021/03/12 08:42:57;;;;;;;15.00;9.25;;;;;;;7.37;80.21;99065.19;99438;1171;88240;-63
2021/03/12 08:45:08;;;;;;;13.10;8.30;;;;;;;7.55;79.75;99066.28;99425;1174;82961;-63
2021/03/12 08:47:19;;;;;;;12.80;8.40;;;;;;;7.64;79.68;99077.67;99443;1168;66625;-63
2021/03/12 08:49:28;;;;;;;12.13;8.30;;;;;;;7.74;79.76;99064.70;99423;1175;87475;-62
2021/03/12 08:51:33;;;;;;;12.35;8.25;;;;;;;7.88;79.76;99071.76;99449;1168;74771;-63
2021/03/12 08:53:47;;;;;;;11.40;8.20;;;;;;;7.98;79.13;99076.72;99444;1168;89078;-63
2021/03/12 08:55:55;;;;;;;9.90;7.60;;;;;;;7.89;78.60;99077.94;99432;1168;83129;-62
2021/03/12 08:58:16;;;;;;;13.30;7.60;;;;;;;7.88;78.55;99077.14;99453;1168;67236;-61
2021/03/12 09:00:23;;;;;;;10.45;8.05;;;;;;;7.96;79.07;99076.94;99437;1175;87597;-61
2021/03/12 09:02:31;;;;;;;12.35;8.20;;;;;;;8.03;79.13;99085.83;99443;1168;74655;-62
2021/03/12 09:04:37;;;;;;;10.20;7.45;;;;;;;8.10;78.53;99092.03;99437;1167;89122;-62
2021/03/12 09:06:45;;;;;;;12.40;7.50;;;;;;;8.02;78.23;99094.12;99430;1167;82632;-62
2021/03/12 09:08:53;;;;;;;9.65;6.55;;;;;;;7.91;78.33;99095.52;99450;1171;67659;-62
2021/03/12 09:10:59;;;;;;;8.50;6.65;;;;;;;7.86;78.39;99102.54;99439;1175;88670;-63
2021/03/12 09:13:13;;;;;;;9.20;6.50;;;;;;;7.73;78.25;99104.19;99437;1168;75302;-64
2021/03/12 09:15:24;;;;;;;11.60;6.70;;;;;;;7.65;77.94;99111.59;99446;1171;88609;-63
2021/03/12 09:17:38;;;;;;;8.60;6.20;;;;;;;7.59;78.11;99115.92;99421;1171;82709;-63
2021/03/12 09:19:43;;;;;;;11.03;6.53;;;;;;;7.60;78.18;99125.65;99440;1175;66990;-64
2021/03/12 09:21:56;;;;;;;9.00;6.60;;;;;;;7.64;78.06;99115.30;99436;1175;87408;-64
2021/03/12 09:24:17;;;;;;;9.40;6.20;;;;;;;7.62;78.18;99126.27;99448;1171;74781;-62
2021/03/12 09:26:29;;;;;;;9.30;6.50;;;;;;;7.66;77.92;99122.13;99436;1171;89846;-63
2021/03/12 09:28:35;;;;;;;7.20;6.10;;;;;;;7.72;78.44;99124.02;99420;1173;82750;-70
2021/03/12 09:30:44;;;;;;;10.45;6.80;;;;;;;7.79;78.15;99134.80;99440;1175;66989;-63
2021/03/12 09:32:50;;;;;;;10.30;7.50;;;;;;;7.82;77.23;99129.02;99435;1167;87051;-63
2021/03/12 09:34:56;;;;;;;11.10;7.17;;;;;;;7.86;77.48;99127.57;99455;1172;75014;-62
2021/03/12 09:37:05;;;;;;;10.90;7.10;;;;;;;7.84;77.57;99134.19;99444;1174;88373;-63
2021/03/12 09:39:18;;;;;;;9.47;6.90;;;;;;;7.82;77.49;99129.02;99427;1174;81948;-61
2021/03/12 09:41:26;;;;;;;10.67;7.03;;;;;;;7.81;77.55;99135.42;99438;1175;66929;-64
2021/03/12 09:43:35;;;;;;;9.30;6.90;;;;;;;7.71;77.50;99130.45;99448;1171;87473;-62
2021/03/12 09:45:49;;;;;;;9.15;6.70;;;;;;;7.64;77.29;99136.80;99449;1167;75114;-64
2021/03/12 09:47:55;;;;;;;8.73;6.30;;;;;;;7.56;77.24;99134.30;99440;1174;89159;-66
2021/03/12 09:50:00;;;;;;;9.70;6.70;;;;;;;7.50;77.05;99146.67;99417;1174;82987;-69
2021/03/12 09:52:11;;;;;;;7.80;5.95;;;;;;;7.48;77.37;99137.16;99446;1168;66840;-65
2021/03/12 09:54:18;;;;;;;11.25;6.95;;;;;;;7.47;77.40;99155.13;99436;1171;86450;-65
2021/03/12 09:56:25;;;;;;;11.35;6.95;;;;;;;7.54;77.31;99152.48;99453;1174;75966;-61
2021/03/12 09:58:30;;;;;;;8.77;7.10;;;;;;;7.64;77.34;99152.93;99439;1167;88758;-63
2021/03/12 10:00:39;;;;;;;11.75;7.40;;;;;;;7.88;77.41;99155.11;99428;1174;82011;-62